Ken Voyager — 3FXQ7 — position and weather

sailwx.info

Track history (hours):
 
Tides and Currents Weather Stations Pressure Air Temp Water Temp Dewpoint Dewpoint Depression Visibility Wind Speed Wind Dir Waves Ship Positions

Ken Voyager

Last reported at 2017-Sep-26 17:00 UTC. Time now 2017-Oct-19 16:24 UTC.
Position N 34°31' E 134°41'.
Warning: this ship's position is 22 days out of date.

Length 183 m; draft 6.6 m.

Type: Cargo ship. MMSI: 373970000.

Date/timePositionNaut miles runAvg speedWind from/ knotsBaromVisibWave heightAir tempDewpointWater temp
2017-Sep-26 17:00N 34°31' E 134°41'612.3
2017-Sep-26 16:30N 34°33' E 134°47'712.8
2017-Sep-26 15:59N 34°36' E 134°55'612.2
2017-Sep-26 15:30N 34°37' E 135°02'612.2
2017-Sep-26 15:00N 34°34' E 135°08'4 8.2
2017-Sep-26 14:30N 34°34' E 135°13'0 0.0
2017-Sep-26 13:51N 34°34' E 135°13'0 0.1
2017-Sep-26 13:27N 34°34' E 135°13'0 0.0
2017-Sep-26 13:00N 34°34' E 135°13'0 0.0
2017-Sep-26 12:27N 34°34' E 135°13'0 0.1
2017-Sep-26 11:57N 34°34' E 135°13'0 0.0
2017-Sep-26 11:27N 34°34' E 135°13'0 0.0
2017-Sep-26 10:57N 34°34' E 135°13'0 0.0
2017-Sep-26 10:30N 34°34' E 135°13'0 0.1
2017-Sep-26 10:00N 34°34' E 135°13'3 5.8
2017-Sep-26 09:30N 34°36' E 135°16'510.1
2017-Sep-26 08:59N 34°34' E 135°22'4 7.6
2017-Sep-26 08:30N 34°31' E 135°25'0 0.0
2017-Sep-25 23:31N 34°31' E 135°25'0 0.0
2017-Sep-25 23:19N 34°31' E 135°25'0 0.0
2017-Sep-25 22:55N 34°31' E 135°25'0 1.0
2017-Sep-25 22:29N 34°32' E 135°24'3 6.6
2017-Sep-25 22:00N 34°32' E 135°21'0 0.1
2017-Sep-25 20:28N 34°32' E 135°21'0 0.0
2017-Sep-25 19:52N 34°32' E 135°21'0 0.0
2017-Sep-25 19:28N 34°32' E 135°21'0 0.0
2017-Sep-25 18:04N 34°32' E 135°21'0 0.0
2017-Sep-25 17:46N 34°32' E 135°21'0 0.0
2017-Sep-25 17:28N 34°32' E 135°21'0 0.0
2017-Sep-25 16:58N 34°32' E 135°21'0 0.0
2017-Sep-25 14:58N 34°32' E 135°21'0 0.1
2017-Sep-25 13:58N 34°32' E 135°21'0 0.1
2017-Sep-25 13:28N 34°32' E 135°21'0 0.0
2017-Sep-25 12:34N 34°32' E 135°21'0 0.0
2017-Sep-25 12:10N 34°32' E 135°21'0 0.0
2017-Sep-25 11:52N 34°32' E 135°21'0 0.0
2017-Sep-25 11:10N 34°32' E 135°21'0 0.0
2017-Sep-25 10:46N 34°32' E 135°21'0 0.0
2017-Sep-25 09:34N 34°32' E 135°21'0 0.0
2017-Sep-25 09:28N 34°32' E 135°21'0 0.0
2017-Sep-25 07:58N 34°32' E 135°21'1 1.8
2017-Sep-25 07:30N 34°33' E 135°21'5 9.2
2017-Sep-25 07:00N 34°37' E 135°22'4 8.9
2017-Sep-25 06:31N 34°40' E 135°26'0 0.6
2017-Sep-25 05:55N 34°40' E 135°27'0 0.0
2017-Sep-25 05:19N 34°40' E 135°27'0 0.0
2017-Sep-25 04:43N 34°40' E 135°27'0 0.0
2017-Sep-25 04:25N 34°40' E 135°27'0 0.0
2017-Sep-25 03:55N 34°40' E 135°27'0 0.0
2017-Sep-25 03:25N 34°40' E 135°27'0 0.0
2017-Sep-25 02:55N 34°40' E 135°27'0 0.0
2017-Sep-25 02:25N 34°40' E 135°27'0 0.0
2017-Sep-25 01:55N 34°40' E 135°27'0 0.0
2017-Sep-25 01:25N 34°40' E 135°27'0 0.0
2017-Sep-25 00:55N 34°40' E 135°27'0 0.0
2017-Sep-25 00:25N 34°40' E 135°27'0 0.0
2017-Sep-24 23:55N 34°40' E 135°27'0 0.0
2017-Sep-24 23:19N 34°40' E 135°27'0 0.0
2017-Sep-24 22:55N 34°40' E 135°27'0 0.0
2017-Sep-24 22:25N 34°40' E 135°27'0 0.0
2017-Sep-24 21:55N 34°40' E 135°27'0 0.0
2017-Sep-24 21:19N 34°40' E 135°27'0 0.0
2017-Sep-24 20:55N 34°40' E 135°27'0 0.0
2017-Sep-24 20:19N 34°40' E 135°27'0 0.0
2017-Sep-24 19:55N 34°40' E 135°27'0 0.0
2017-Sep-24 19:25N 34°40' E 135°27'0 0.0
2017-Sep-24 18:55N 34°40' E 135°27'0 0.0
2017-Sep-24 18:19N 34°40' E 135°27'0 0.0
2017-Sep-24 17:55N 34°40' E 135°27'0 0.0
2017-Sep-24 17:19N 34°40' E 135°27'0 0.0
2017-Sep-24 16:49N 34°40' E 135°27'0 0.0
2017-Sep-24 16:19N 34°40' E 135°27'0 0.0
2017-Sep-24 15:55N 34°40' E 135°27'0 0.0
2017-Sep-24 15:25N 34°40' E 135°27'0 0.0
2017-Sep-24 14:55N 34°40' E 135°27'0 0.0
2017-Sep-24 13:25N 34°40' E 135°27'0 0.0
2017-Sep-24 12:55N 34°40' E 135°27'0 0.0
2017-Sep-24 10:49N 34°40' E 135°27'0 0.0
2017-Sep-24 10:25N 34°40' E 135°27'0 0.0
2017-Sep-24 09:55N 34°40' E 135°27'0 0.0
2017-Sep-24 09:25N 34°40' E 135°27'0 0.0
2017-Sep-24 01:31N 34°40' E 135°27'0 0.1
2017-Sep-24 01:25N 34°40' E 135°27'0 0.0
2017-Sep-23 23:07N 34°40' E 135°27'0 0.0
2017-Sep-23 22:55N 34°40' E 135°27'0 0.0
2017-Sep-23 22:25N 34°40' E 135°27'0 0.0
2017-Sep-23 21:55N 34°40' E 135°27'0 0.0
2017-Sep-23 21:25N 34°40' E 135°27'0 0.0
2017-Sep-23 20:55N 34°40' E 135°27'0 0.0
2017-Sep-23 20:25N 34°40' E 135°27'0 0.0
2017-Sep-23 19:43N 34°40' E 135°27'0 0.0
2017-Sep-22 01:49N 34°40' E 135°27'0 0.0
2017-Sep-22 01:25N 34°40' E 135°27'0 0.0
2017-Sep-22 00:37N 34°40' E 135°27'0 0.0
2017-Sep-22 00:25N 34°40' E 135°27'0 0.0
2017-Sep-21 23:55N 34°40' E 135°27'0 0.0
2017-Sep-21 23:25N 34°40' E 135°27'0 0.0
2017-Sep-21 22:55N 34°40' E 135°27'0 0.6
2017-Sep-21 22:30N 34°40' E 135°26'4 7.0
2017-Sep-21 22:00N 34°38' E 135°23'4 6.1
2017-Sep-21 21:20N 34°36' E 135°19'0 0.3
2017-Sep-21 20:56N 34°36' E 135°18'0 0.0
2017-Sep-21 20:26N 34°36' E 135°18'0 0.0
2017-Sep-21 19:20N 34°36' E 135°18'0 0.1
2017-Sep-21 18:32N 34°36' E 135°18'0 0.0
2017-Sep-21 18:26N 34°36' E 135°18'0 0.1
2017-Sep-21 17:56N 34°36' E 135°18'0 0.1
2017-Sep-21 17:26N 34°36' E 135°18'0 0.0
2017-Sep-21 16:56N 34°36' E 135°18'0 0.1
2017-Sep-21 16:26N 34°36' E 135°18'0 0.1
2017-Sep-21 15:44N 34°36' E 135°18'0 0.0
2017-Sep-21 15:20N 34°36' E 135°18'0 0.0
2017-Sep-21 14:50N 34°36' E 135°18'0 0.1
2017-Sep-21 14:26N 34°36' E 135°18'0 0.0
2017-Sep-21 13:56N 34°36' E 135°18'0 0.1
2017-Sep-21 13:26N 34°36' E 135°18'0 0.0
2017-Sep-21 12:56N 34°36' E 135°18'0 0.0
2017-Sep-21 12:26N 34°36' E 135°18'0 0.1
2017-Sep-21 11:56N 34°36' E 135°18'0 0.7
2017-Sep-21 11:30N 34°36' E 135°19'2 4.1
2017-Sep-21 11:00N 34°38' E 135°18'4 8.8
2017-Sep-21 10:30N 34°42' E 135°18'0 0.2
2017-Sep-21 09:49N 34°42' E 135°18'0 0.0
2017-Sep-21 09:19N 34°42' E 135°18'0 0.0
2017-Sep-21 08:55N 34°42' E 135°18'0 0.0
2017-Sep-21 08:25N 34°42' E 135°18'0 0.0
2017-Sep-21 07:55N 34°42' E 135°18'0 0.0
2017-Sep-21 07:19N 34°42' E 135°18'0 0.0
2017-Sep-21 06:49N 34°42' E 135°18'0 0.0
2017-Sep-21 06:25N 34°42' E 135°18'0 0.0
2017-Sep-21 05:55N 34°42' E 135°18'0 0.0
2017-Sep-21 05:25N 34°42' E 135°18'0 0.0
2017-Sep-21 04:49N 34°42' E 135°18'0 0.0
2017-Sep-21 04:25N 34°42' E 135°18'0 0.0
2017-Sep-21 03:55N 34°42' E 135°18'0 0.0
2017-Sep-21 03:29N 34°42' E 135°18'1 1.3
2017-Sep-21 03:00N 34°42' E 135°17'0 0.2
2017-Sep-21 02:26N 34°42' E 135°17'0 0.0
2017-Sep-21 02:00N 34°42' E 135°17'0 0.0
2017-Sep-21 01:26N 34°42' E 135°17'0 0.0
2017-Sep-21 00:56N 34°42' E 135°17'0 0.0
2017-Sep-21 00:26N 34°42' E 135°17'0 0.0
2017-Sep-20 23:56N 34°42' E 135°17'0 0.0
2017-Sep-20 23:20N 34°42' E 135°17'0 0.0
2017-Sep-20 22:56N 34°42' E 135°17'0 0.0
2017-Sep-20 22:20N 34°42' E 135°17'0 0.0
2017-Sep-20 21:56N 34°42' E 135°17'0 0.0
2017-Sep-20 21:26N 34°42' E 135°17'0 0.0
2017-Sep-20 20:50N 34°42' E 135°17'0 0.0
2017-Sep-20 20:26N 34°42' E 135°17'0 0.0
2017-Sep-20 19:56N 34°42' E 135°17'0 0.0
2017-Sep-20 19:26N 34°42' E 135°17'0 0.0
2017-Sep-20 18:56N 34°42' E 135°17'0 0.0
2017-Sep-20 18:26N 34°42' E 135°17'0 0.0
2017-Sep-20 17:56N 34°42' E 135°17'0 0.0
2017-Sep-20 17:20N 34°42' E 135°17'0 0.0
2017-Sep-20 16:56N 34°42' E 135°17'0 0.0
2017-Sep-20 16:26N 34°42' E 135°17'0 0.0
2017-Sep-20 15:56N 34°42' E 135°17'0 0.0
2017-Sep-20 15:26N 34°42' E 135°17'0 0.0
2017-Sep-20 14:56N 34°42' E 135°17'0 0.0
2017-Sep-20 13:56N 34°42' E 135°17'0 0.0
2017-Sep-20 13:20N 34°42' E 135°17'0 0.0
2017-Sep-20 12:56N 34°42' E 135°17'0 0.0
2017-Sep-20 12:02N 34°42' E 135°17'0 0.0
2017-Sep-20 11:56N 34°42' E 135°17'0 0.0
2017-Sep-20 11:20N 34°42' E 135°17'0 0.0
2017-Sep-20 10:56N 34°42' E 135°17'0 0.0
2017-Sep-20 10:26N 34°42' E 135°17'0 0.0
2017-Sep-20 09:56N 34°42' E 135°17'0 0.0
2017-Sep-20 09:26N 34°42' E 135°17'0 0.0
2017-Sep-20 08:56N 34°42' E 135°17'0 0.0
2017-Sep-20 08:26N 34°42' E 135°17'0 0.0
2017-Sep-20 07:56N 34°42' E 135°17'0 0.0
2017-Sep-20 07:26N 34°42' E 135°17'0 0.0
2017-Sep-20 06:56N 34°42' E 135°17'0 0.0
2017-Sep-20 06:26N 34°42' E 135°17'0 0.0
2017-Sep-20 05:50N 34°42' E 135°17'0 0.0
2017-Sep-20 05:14N 34°42' E 135°17'0 0.0
2017-Sep-20 04:56N 34°42' E 135°17'0 0.0
2017-Sep-20 04:26N 34°42' E 135°17'0 0.0
2017-Sep-20 03:56N 34°42' E 135°17'0 0.0
2017-Sep-20 03:26N 34°42' E 135°17'0 0.0
2017-Sep-20 02:50N 34°42' E 135°17'0 0.0
2017-Sep-20 02:26N 34°42' E 135°17'0 0.0
2017-Sep-20 01:56N 34°42' E 135°17'0 0.0
2017-Sep-20 01:20N 34°42' E 135°17'0 0.0
2017-Sep-20 00:56N 34°42' E 135°17'0 0.0
2017-Sep-20 00:26N 34°42' E 135°17'0 0.0
2017-Sep-19 23:56N 34°42' E 135°17'0 0.0
2017-Sep-19 23:20N 34°42' E 135°17'0 0.0
2017-Sep-19 22:56N 34°42' E 135°17'0 1.1
2017-Sep-19 22:30N 34°42' E 135°17'2 4.7
2017-Sep-19 22:00N 34°41' E 135°15'1 2.1
2017-Sep-19 21:30N 34°42' E 135°16'0 0.0
2017-Sep-19 20:32N 34°42' E 135°16'0 0.0
2017-Sep-19 20:14N 34°42' E 135°16'0 0.0
2017-Sep-19 19:56N 34°42' E 135°16'0 0.0
2017-Sep-19 19:26N 34°42' E 135°16'0 0.0
2017-Sep-19 18:50N 34°42' E 135°16'0 0.0
2017-Sep-19 18:26N 34°42' E 135°16'0 0.0
2017-Sep-19 17:56N 34°42' E 135°16'0 0.0
2017-Sep-19 17:20N 34°42' E 135°16'0 0.0
2017-Sep-19 16:56N 34°42' E 135°16'0 0.0
2017-Sep-19 16:26N 34°42' E 135°16'0 0.0
2017-Sep-19 15:56N 34°42' E 135°16'0 0.0
2017-Sep-19 15:26N 34°42' E 135°16'0 0.0
2017-Sep-19 14:56N 34°42' E 135°16'0 0.0
2017-Sep-19 14:26N 34°42' E 135°16'0 0.0
2017-Sep-19 13:56N 34°42' E 135°16'0 0.0
2017-Sep-19 13:26N 34°42' E 135°16'0 0.0
2017-Sep-19 12:56N 34°42' E 135°16'0 0.0
2017-Sep-19 12:26N 34°42' E 135°16'0 0.0
2017-Sep-19 11:56N 34°42' E 135°16'0 0.0
2017-Sep-19 11:26N 34°42' E 135°16'0 0.0
2017-Sep-19 10:50N 34°42' E 135°16'0 0.0
2017-Sep-19 10:26N 34°42' E 135°16'0 0.0
2017-Sep-19 09:32N 34°42' E 135°16'0 0.0
2017-Sep-19 09:20N 34°42' E 135°16'0 0.0
2017-Sep-19 08:50N 34°42' E 135°16'0 0.0
2017-Sep-19 08:20N 34°42' E 135°16'0 0.0
2017-Sep-19 07:56N 34°42' E 135°16'0 0.0
2017-Sep-19 07:26N 34°42' E 135°16'0 0.0
2017-Sep-19 06:56N 34°42' E 135°16'0 0.0
2017-Sep-19 06:26N 34°42' E 135°16'0 0.0
2017-Sep-19 05:50N 34°42' E 135°16'0 0.0
2017-Sep-19 05:26N 34°42' E 135°16'0 0.0
2017-Sep-19 04:56N 34°42' E 135°16'0 0.0
2017-Sep-19 04:26N 34°42' E 135°16'0 0.0
2017-Sep-19 03:50N 34°42' E 135°16'0 0.0
2017-Sep-19 03:26N 34°42' E 135°16'0 0.0
2017-Sep-19 02:56N 34°42' E 135°16'0 0.0
2017-Sep-19 02:26N 34°42' E 135°16'0 0.0
2017-Sep-19 01:56N 34°42' E 135°16'0 0.0
2017-Sep-19 01:26N 34°42' E 135°16'0 0.0
2017-Sep-19 00:56N 34°42' E 135°16'0 0.0
2017-Sep-19 00:26N 34°42' E 135°16'0 0.0
2017-Sep-18 23:56N 34°42' E 135°16'0 0.0
2017-Sep-18 23:20N 34°42' E 135°16'0 0.0
2017-Sep-18 22:54N 34°42' E 135°16'1 1.7
2017-Sep-18 22:29N 34°42' E 135°15'2 4.8
2017-Sep-18 22:00N 34°39' E 135°16'3 6.7
2017-Sep-18 21:30N 34°36' E 135°16'510.5
2017-Sep-18 21:00N 34°32' E 135°12'611.5
2017-Sep-18 20:29N 34°27' E 135°07'612.1
2017-Sep-18 19:59N 34°23' E 135°03'711.9
2017-Sep-18 19:25N 34°16' E 134°59'511.9
2017-Sep-18 19:00N 34°12' E 134°60'4 8.8
2017-Sep-18 18:30N 34°07' E 134°60'3 5.1
2017-Sep-18 17:59N 34°06' E 134°57'1 1.4
2017-Sep-18 17:31N 34°05' E 134°57'1 1.2
2017-Sep-18 17:00N 34°05' E 134°56'1 1.2
2017-Sep-18 16:30N 34°04' E 134°56'1 2.4
2017-Sep-18 16:00N 34°03' E 134°56'3 6.2
2017-Sep-18 15:30N 34°00' E 134°55'  
Track history (hours):
 
Tides and Currents Weather Stations Pressure Air Temp Water Temp Dewpoint Dewpoint Depression Visibility Wind Speed Wind Dir Waves Ship Positions

Ken Voyager

Last reported at 2017-Sep-26 17:00 UTC. Time now 2017-Oct-19 16:24 UTC.
Position N 34°31' E 134°41'.
Warning: this ship's position is 22 days out of date.

Length 183 m; draft 6.6 m.

Type: Cargo ship. MMSI: 373970000.

Date/timePositionNaut miles runAvg speedWind from/ knotsBaromVisibWave heightAir tempDewpointWater temp
2017-Sep-26 17:00N 34°31' E 134°41'612.3
2017-Sep-26 16:30N 34°33' E 134°47'712.8
2017-Sep-26 15:59N 34°36' E 134°55'612.2
2017-Sep-26 15:30N 34°37' E 135°02'612.2
2017-Sep-26 15:00N 34°34' E 135°08'4 8.2
2017-Sep-26 14:30N 34°34' E 135°13'0 0.0
2017-Sep-26 13:51N 34°34' E 135°13'0 0.1
2017-Sep-26 13:27N 34°34' E 135°13'0 0.0
2017-Sep-26 13:00N 34°34' E 135°13'0 0.0
2017-Sep-26 12:27N 34°34' E 135°13'0 0.1
2017-Sep-26 11:57N 34°34' E 135°13'0 0.0
2017-Sep-26 11:27N 34°34' E 135°13'0 0.0
2017-Sep-26 10:57N 34°34' E 135°13'0 0.0
2017-Sep-26 10:30N 34°34' E 135°13'0 0.1
2017-Sep-26 10:00N 34°34' E 135°13'3 5.8
2017-Sep-26 09:30N 34°36' E 135°16'510.1
2017-Sep-26 08:59N 34°34' E 135°22'4 7.6
2017-Sep-26 08:30N 34°31' E 135°25'0 0.0
2017-Sep-25 23:31N 34°31' E 135°25'0 0.0
2017-Sep-25 23:19N 34°31' E 135°25'0 0.0
2017-Sep-25 22:55N 34°31' E 135°25'0 1.0
2017-Sep-25 22:29N 34°32' E 135°24'3 6.6
2017-Sep-25 22:00N 34°32' E 135°21'0 0.1
2017-Sep-25 20:28N 34°32' E 135°21'0 0.0
2017-Sep-25 19:52N 34°32' E 135°21'0 0.0
2017-Sep-25 19:28N 34°32' E 135°21'0 0.0
2017-Sep-25 18:04N 34°32' E 135°21'0 0.0
2017-Sep-25 17:46N 34°32' E 135°21'0 0.0
2017-Sep-25 17:28N 34°32' E 135°21'0 0.0
2017-Sep-25 16:58N 34°32' E 135°21'0 0.0
2017-Sep-25 14:58N 34°32' E 135°21'0 0.1
2017-Sep-25 13:58N 34°32' E 135°21'0 0.1
2017-Sep-25 13:28N 34°32' E 135°21'0 0.0
2017-Sep-25 12:34N 34°32' E 135°21'0 0.0
2017-Sep-25 12:10N 34°32' E 135°21'0 0.0
2017-Sep-25 11:52N 34°32' E 135°21'0 0.0
2017-Sep-25 11:10N 34°32' E 135°21'0 0.0
2017-Sep-25 10:46N 34°32' E 135°21'0 0.0
2017-Sep-25 09:34N 34°32' E 135°21'0 0.0
2017-Sep-25 09:28N 34°32' E 135°21'0 0.0
2017-Sep-25 07:58N 34°32' E 135°21'1 1.8
2017-Sep-25 07:30N 34°33' E 135°21'5 9.2
2017-Sep-25 07:00N 34°37' E 135°22'4 8.9
2017-Sep-25 06:31N 34°40' E 135°26'0 0.6
2017-Sep-25 05:55N 34°40' E 135°27'0 0.0
2017-Sep-25 05:19N 34°40' E 135°27'0 0.0
2017-Sep-25 04:43N 34°40' E 135°27'0 0.0
2017-Sep-25 04:25N 34°40' E 135°27'0 0.0
2017-Sep-25 03:55N 34°40' E 135°27'0 0.0
2017-Sep-25 03:25N 34°40' E 135°27'0 0.0
2017-Sep-25 02:55N 34°40' E 135°27'0 0.0
2017-Sep-25 02:25N 34°40' E 135°27'0 0.0
2017-Sep-25 01:55N 34°40' E 135°27'0 0.0
2017-Sep-25 01:25N 34°40' E 135°27'0 0.0
2017-Sep-25 00:55N 34°40' E 135°27'0 0.0
2017-Sep-25 00:25N 34°40' E 135°27'0 0.0
2017-Sep-24 23:55N 34°40' E 135°27'0 0.0
2017-Sep-24 23:19N 34°40' E 135°27'0 0.0
2017-Sep-24 22:55N 34°40' E 135°27'0 0.0
2017-Sep-24 22:25N 34°40' E 135°27'0 0.0
2017-Sep-24 21:55N 34°40' E 135°27'0 0.0
2017-Sep-24 21:19N 34°40' E 135°27'0 0.0
2017-Sep-24 20:55N 34°40' E 135°27'0 0.0
2017-Sep-24 20:19N 34°40' E 135°27'0 0.0
2017-Sep-24 19:55N 34°40' E 135°27'0 0.0
2017-Sep-24 19:25N 34°40' E 135°27'0 0.0
2017-Sep-24 18:55N 34°40' E 135°27'0 0.0
2017-Sep-24 18:19N 34°40' E 135°27'0 0.0
2017-Sep-24 17:55N 34°40' E 135°27'0 0.0
2017-Sep-24 17:19N 34°40' E 135°27'0 0.0
2017-Sep-24 16:49N 34°40' E 135°27'0 0.0
2017-Sep-24 16:19N 34°40' E 135°27'0 0.0
2017-Sep-24 15:55N 34°40' E 135°27'0 0.0
2017-Sep-24 15:25N 34°40' E 135°27'0 0.0
2017-Sep-24 14:55N 34°40' E 135°27'0 0.0
2017-Sep-24 13:25N 34°40' E 135°27'0 0.0
2017-Sep-24 12:55N 34°40' E 135°27'0 0.0
2017-Sep-24 10:49N 34°40' E 135°27'0 0.0
2017-Sep-24 10:25N 34°40' E 135°27'0 0.0
2017-Sep-24 09:55N 34°40' E 135°27'0 0.0
2017-Sep-24 09:25N 34°40' E 135°27'0 0.0
2017-Sep-24 01:31N 34°40' E 135°27'0 0.1
2017-Sep-24 01:25N 34°40' E 135°27'0 0.0
2017-Sep-23 23:07N 34°40' E 135°27'0 0.0
2017-Sep-23 22:55N 34°40' E 135°27'0 0.0
2017-Sep-23 22:25N 34°40' E 135°27'0 0.0
2017-Sep-23 21:55N 34°40' E 135°27'0 0.0
2017-Sep-23 21:25N 34°40' E 135°27'0 0.0
2017-Sep-23 20:55N 34°40' E 135°27'0 0.0
2017-Sep-23 20:25N 34°40' E 135°27'0 0.0
2017-Sep-23 19:43N 34°40' E 135°27'0 0.0
2017-Sep-22 01:49N 34°40' E 135°27'0 0.0
2017-Sep-22 01:25N 34°40' E 135°27'0 0.0
2017-Sep-22 00:37N 34°40' E 135°27'0 0.0
2017-Sep-22 00:25N 34°40' E 135°27'0 0.0
2017-Sep-21 23:55N 34°40' E 135°27'0 0.0
2017-Sep-21 23:25N 34°40' E 135°27'0 0.0
2017-Sep-21 22:55N 34°40' E 135°27'0 0.6
2017-Sep-21 22:30N 34°40' E 135°26'4 7.0
2017-Sep-21 22:00N 34°38' E 135°23'4 6.1
2017-Sep-21 21:20N 34°36' E 135°19'0 0.3
2017-Sep-21 20:56N 34°36' E 135°18'0 0.0
2017-Sep-21 20:26N 34°36' E 135°18'0 0.0
2017-Sep-21 19:20N 34°36' E 135°18'0 0.1
2017-Sep-21 18:32N 34°36' E 135°18'0 0.0
2017-Sep-21 18:26N 34°36' E 135°18'0 0.1
2017-Sep-21 17:56N 34°36' E 135°18'0 0.1
2017-Sep-21 17:26N 34°36' E 135°18'0 0.0
2017-Sep-21 16:56N 34°36' E 135°18'0 0.1
2017-Sep-21 16:26N 34°36' E 135°18'0 0.1
2017-Sep-21 15:44N 34°36' E 135°18'0 0.0
2017-Sep-21 15:20N 34°36' E 135°18'0 0.0
2017-Sep-21 14:50N 34°36' E 135°18'0 0.1
2017-Sep-21 14:26N 34°36' E 135°18'0 0.0
2017-Sep-21 13:56N 34°36' E 135°18'0 0.1
2017-Sep-21 13:26N 34°36' E 135°18'0 0.0
2017-Sep-21 12:56N 34°36' E 135°18'0 0.0
2017-Sep-21 12:26N 34°36' E 135°18'0 0.1
2017-Sep-21 11:56N 34°36' E 135°18'0 0.7
2017-Sep-21 11:30N 34°36' E 135°19'2 4.1
2017-Sep-21 11:00N 34°38' E 135°18'4 8.8
2017-Sep-21 10:30N 34°42' E 135°18'0 0.2
2017-Sep-21 09:49N 34°42' E 135°18'0 0.0
2017-Sep-21 09:19N 34°42' E 135°18'0 0.0
2017-Sep-21 08:55N 34°42' E 135°18'0 0.0
2017-Sep-21 08:25N 34°42' E 135°18'0 0.0
2017-Sep-21 07:55N 34°42' E 135°18'0 0.0
2017-Sep-21 07:19N 34°42' E 135°18'0 0.0
2017-Sep-21 06:49N 34°42' E 135°18'0 0.0
2017-Sep-21 06:25N 34°42' E 135°18'0 0.0
2017-Sep-21 05:55N 34°42' E 135°18'0 0.0
2017-Sep-21 05:25N 34°42' E 135°18'0 0.0
2017-Sep-21 04:49N 34°42' E 135°18'0 0.0
2017-Sep-21 04:25N 34°42' E 135°18'0 0.0
2017-Sep-21 03:55N 34°42' E 135°18'0 0.0
2017-Sep-21 03:29N 34°42' E 135°18'1 1.3
2017-Sep-21 03:00N 34°42' E 135°17'0 0.2
2017-Sep-21 02:26N 34°42' E 135°17'0 0.0
2017-Sep-21 02:00N 34°42' E 135°17'0 0.0
2017-Sep-21 01:26N 34°42' E 135°17'0 0.0
2017-Sep-21 00:56N 34°42' E 135°17'0 0.0
2017-Sep-21 00:26N 34°42' E 135°17'0 0.0
2017-Sep-20 23:56N 34°42' E 135°17'0 0.0
2017-Sep-20 23:20N 34°42' E 135°17'0 0.0
2017-Sep-20 22:56N 34°42' E 135°17'0 0.0
2017-Sep-20 22:20N 34°42' E 135°17'0 0.0
2017-Sep-20 21:56N 34°42' E 135°17'0 0.0
2017-Sep-20 21:26N 34°42' E 135°17'0 0.0
2017-Sep-20 20:50N 34°42' E 135°17'0 0.0
2017-Sep-20 20:26N 34°42' E 135°17'0 0.0
2017-Sep-20 19:56N 34°42' E 135°17'0 0.0
2017-Sep-20 19:26N 34°42' E 135°17'0 0.0
2017-Sep-20 18:56N 34°42' E 135°17'0 0.0
2017-Sep-20 18:26N 34°42' E 135°17'0 0.0
2017-Sep-20 17:56N 34°42' E 135°17'0 0.0
2017-Sep-20 17:20N 34°42' E 135°17'0 0.0
2017-Sep-20 16:56N 34°42' E 135°17'0 0.0
2017-Sep-20 16:26N 34°42' E 135°17'0 0.0
2017-Sep-20 15:56N 34°42' E 135°17'0 0.0
2017-Sep-20 15:26N 34°42' E 135°17'0 0.0
2017-Sep-20 14:56N 34°42' E 135°17'0 0.0
2017-Sep-20 13:56N 34°42' E 135°17'0 0.0
2017-Sep-20 13:20N 34°42' E 135°17'0 0.0
2017-Sep-20 12:56N 34°42' E 135°17'0 0.0
2017-Sep-20 12:02N 34°42' E 135°17'0 0.0
2017-Sep-20 11:56N 34°42' E 135°17'0 0.0
2017-Sep-20 11:20N 34°42' E 135°17'0 0.0
2017-Sep-20 10:56N 34°42' E 135°17'0 0.0
2017-Sep-20 10:26N 34°42' E 135°17'0 0.0
2017-Sep-20 09:56N 34°42' E 135°17'0 0.0
2017-Sep-20 09:26N 34°42' E 135°17'0 0.0
2017-Sep-20 08:56N 34°42' E 135°17'0 0.0
2017-Sep-20 08:26N 34°42' E 135°17'0 0.0
2017-Sep-20 07:56N 34°42' E 135°17'0 0.0
2017-Sep-20 07:26N 34°42' E 135°17'0 0.0
2017-Sep-20 06:56N 34°42' E 135°17'0 0.0
2017-Sep-20 06:26N 34°42' E 135°17'0 0.0
2017-Sep-20 05:50N 34°42' E 135°17'0 0.0
2017-Sep-20 05:14N 34°42' E 135°17'0 0.0
2017-Sep-20 04:56N 34°42' E 135°17'0 0.0
2017-Sep-20 04:26N 34°42' E 135°17'0 0.0
2017-Sep-20 03:56N 34°42' E 135°17'0 0.0
2017-Sep-20 03:26N 34°42' E 135°17'0 0.0
2017-Sep-20 02:50N 34°42' E 135°17'0 0.0
2017-Sep-20 02:26N 34°42' E 135°17'0 0.0
2017-Sep-20 01:56N 34°42' E 135°17'0 0.0
2017-Sep-20 01:20N 34°42' E 135°17'0 0.0
2017-Sep-20 00:56N 34°42' E 135°17'0 0.0
2017-Sep-20 00:26N 34°42' E 135°17'0 0.0
2017-Sep-19 23:56N 34°42' E 135°17'0 0.0
2017-Sep-19 23:20N 34°42' E 135°17'0 0.0
2017-Sep-19 22:56N 34°42' E 135°17'0 1.1
2017-Sep-19 22:30N 34°42' E 135°17'2 4.7
2017-Sep-19 22:00N 34°41' E 135°15'1 2.1
2017-Sep-19 21:30N 34°42' E 135°16'0 0.0
2017-Sep-19 20:32N 34°42' E 135°16'0 0.0
2017-Sep-19 20:14N 34°42' E 135°16'0 0.0
2017-Sep-19 19:56N 34°42' E 135°16'0 0.0
2017-Sep-19 19:26N 34°42' E 135°16'0 0.0
2017-Sep-19 18:50N 34°42' E 135°16'0 0.0
2017-Sep-19 18:26N 34°42' E 135°16'0 0.0
2017-Sep-19 17:56N 34°42' E 135°16'0 0.0
2017-Sep-19 17:20N 34°42' E 135°16'0 0.0
2017-Sep-19 16:56N 34°42' E 135°16'0 0.0
2017-Sep-19 16:26N 34°42' E 135°16'0 0.0
2017-Sep-19 15:56N 34°42' E 135°16'0 0.0
2017-Sep-19 15:26N 34°42' E 135°16'0 0.0
2017-Sep-19 14:56N 34°42' E 135°16'0 0.0
2017-Sep-19 14:26N 34°42' E 135°16'0 0.0
2017-Sep-19 13:56N 34°42' E 135°16'0 0.0
2017-Sep-19 13:26N 34°42' E 135°16'0 0.0
2017-Sep-19 12:56N 34°42' E 135°16'0 0.0
2017-Sep-19 12:26N 34°42' E 135°16'0 0.0
2017-Sep-19 11:56N 34°42' E 135°16'0 0.0
2017-Sep-19 11:26N 34°42' E 135°16'0 0.0
2017-Sep-19 10:50N 34°42' E 135°16'0 0.0
2017-Sep-19 10:26N 34°42' E 135°16'0 0.0
2017-Sep-19 09:32N 34°42' E 135°16'0 0.0
2017-Sep-19 09:20N 34°42' E 135°16'0 0.0
2017-Sep-19 08:50N 34°42' E 135°16'0 0.0
2017-Sep-19 08:20N 34°42' E 135°16'0 0.0
2017-Sep-19 07:56N 34°42' E 135°16'0 0.0
2017-Sep-19 07:26N 34°42' E 135°16'0 0.0
2017-Sep-19 06:56N 34°42' E 135°16'0 0.0
2017-Sep-19 06:26N 34°42' E 135°16'0 0.0
2017-Sep-19 05:50N 34°42' E 135°16'0 0.0
2017-Sep-19 05:26N 34°42' E 135°16'0 0.0
2017-Sep-19 04:56N 34°42' E 135°16'0 0.0
2017-Sep-19 04:26N 34°42' E 135°16'0 0.0
2017-Sep-19 03:50N 34°42' E 135°16'0 0.0
2017-Sep-19 03:26N 34°42' E 135°16'0 0.0
2017-Sep-19 02:56N 34°42' E 135°16'0 0.0
2017-Sep-19 02:26N 34°42' E 135°16'0 0.0
2017-Sep-19 01:56N 34°42' E 135°16'0 0.0
2017-Sep-19 01:26N 34°42' E 135°16'0 0.0
2017-Sep-19 00:56N 34°42' E 135°16'0 0.0
2017-Sep-19 00:26N 34°42' E 135°16'0 0.0
2017-Sep-18 23:56N 34°42' E 135°16'0 0.0
2017-Sep-18 23:20N 34°42' E 135°16'0 0.0
2017-Sep-18 22:54N 34°42' E 135°16'1 1.7
2017-Sep-18 22:29N 34°42' E 135°15'2 4.8
2017-Sep-18 22:00N 34°39' E 135°16'3 6.7
2017-Sep-18 21:30N 34°36' E 135°16'510.5
2017-Sep-18 21:00N 34°32' E 135°12'611.5
2017-Sep-18 20:29N 34°27' E 135°07'612.1
2017-Sep-18 19:59N 34°23' E 135°03'711.9
2017-Sep-18 19:25N 34°16' E 134°59'511.9
2017-Sep-18 19:00N 34°12' E 134°60'4 8.8
2017-Sep-18 18:30N 34°07' E 134°60'3 5.1
2017-Sep-18 17:59N 34°06' E 134°57'1 1.4
2017-Sep-18 17:31N 34°05' E 134°57'1 1.2
2017-Sep-18 17:00N 34°05' E 134°56'1 1.2
2017-Sep-18 16:30N 34°04' E 134°56'1 2.4
2017-Sep-18 16:00N 34°03' E 134°56'3 6.2
2017-Sep-18 15:30N 34°00' E 134°55'  

Dump ship's entire track history